createdAt,value
2018-07-07T00:02:07.264Z,101404.06
2018-07-07T00:04:37.440Z,101401.90
2018-07-07T00:07:08.093Z,101404.17
2018-07-07T00:09:38.005Z,101403.32
2018-07-07T00:12:08.876Z,101403.13
2018-07-07T00:14:39.567Z,101406.13
2018-07-07T00:17:09.832Z,101402.58
2018-07-07T00:19:45.128Z,101408.56
2018-07-07T00:22:21.400Z,101406.14
2018-07-07T00:24:55.232Z,101409.63
2018-07-07T00:27:26.102Z,101413.73
2018-07-07T00:29:57.317Z,101409.73
2018-07-07T00:32:35.612Z,101418.65
2018-07-07T00:35:07.558Z,101412.82
2018-07-07T00:37:38.904Z,101412.08
2018-07-07T00:40:13.349Z,101408.50
2018-07-07T00:42:45.781Z,101405.98
2018-07-07T00:48:06.064Z,101405.23
2018-07-07T00:50:37.388Z,101412.92
2018-07-07T00:53:08.269Z,101410.87
2018-07-07T00:55:39.032Z,101413.22
2018-07-07T01:00:56.826Z,101415.61
2018-07-07T01:03:36.410Z,101411.05
2018-07-07T01:06:09.282Z,101419.05
2018-07-07T01:08:41.465Z,101412.55
2018-07-07T01:11:17.831Z,101419.16
2018-07-07T01:13:54.331Z,101419.78
2018-07-07T01:16:24.849Z,101420.37
2018-07-07T01:18:59.918Z,101428.98
2018-07-07T01:21:36.145Z,101423.41
2018-07-07T01:24:07.598Z,101426.04
2018-07-07T01:26:37.776Z,101422.03
2018-07-07T01:29:07.876Z,101420.82
2018-07-07T01:31:38.516Z,101420.82
2018-07-07T01:34:08.498Z,101425.70
2018-07-07T01:36:38.482Z,101417.44
2018-07-07T01:39:08.583Z,101415.17
2018-07-07T01:41:38.586Z,101420.24
2018-07-07T01:44:08.543Z,101412.27
2018-07-07T01:46:38.546Z,101411.04
2018-07-07T01:49:08.543Z,101414.60
2018-07-07T01:51:38.609Z,101406.61
2018-07-07T01:54:08.173Z,101415.25
2018-07-07T01:56:38.347Z,101407.27
2018-07-07T01:59:08.316Z,101409.13
2018-07-07T02:01:39.063Z,101410.83
2018-07-07T02:04:08.883Z,101407.97
2018-07-07T02:06:38.821Z,101405.30
2018-07-07T02:09:09.744Z,101412.66
2018-07-07T02:11:43.680Z,101410.30
2018-07-07T02:14:18.013Z,101406.92
2018-07-07T02:16:52.980Z,101409.99
2018-07-07T02:19:23.811Z,101409.93
2018-07-07T02:22:00.161Z,101409.31
2018-07-07T02:24:40.845Z,101412.33
2018-07-07T02:27:15.983Z,101413.84
2018-07-07T02:29:48.362Z,101418.55
2018-07-07T02:32:18.596Z,101410.64
2018-07-07T02:34:50.594Z,101408.11
2018-07-07T02:37:23.445Z,101413.20
2018-07-07T02:39:59.306Z,101410.61
2018-07-07T02:42:34.408Z,101419.89
2018-07-07T02:45:04.845Z,101419.55
2018-07-07T02:47:35.528Z,101418.70
2018-07-07T02:50:05.844Z,101418.65
2018-07-07T02:52:36.499Z,101413.30
2018-07-07T02:55:10.018Z,101414.58
2018-07-07T02:57:42.998Z,101419.44
2018-07-07T03:00:17.203Z,101415.56
2018-07-07T03:02:47.475Z,101415.33
2018-07-07T03:05:19.117Z,101418.31
2018-07-07T03:07:49.130Z,101413.88
2018-07-07T03:10:19.017Z,101419.87
2018-07-07T03:12:48.950Z,101424.58
2018-07-07T03:15:23.901Z,101422.52
2018-07-07T03:17:59.188Z,101422.86
2018-07-07T03:20:35.059Z,101428.34
2018-07-07T03:23:06.031Z,101428.05
2018-07-07T03:25:37.840Z,101430.80
2018-07-07T03:28:08.720Z,101434.18
2018-07-07T03:30:38.646Z,101433.31
2018-07-07T03:33:08.584Z,101436.63
2018-07-07T03:35:38.627Z,101436.25
2018-07-07T03:38:08.746Z,101437.57
2018-07-07T03:40:38.778Z,101444.14
2018-07-07T03:43:08.809Z,101448.70
2018-07-07T03:45:39.972Z,101450.59
2018-07-07T03:48:09.543Z,101457.41
2018-07-07T03:50:39.603Z,101449.31
2018-07-07T03:53:10.841Z,101451.88
2018-07-07T03:55:44.133Z,101450.46
2018-07-07T03:58:16.809Z,101454.33
2018-07-07T04:00:50.893Z,101454.33
2018-07-07T04:03:24.071Z,101458.63
2018-07-07T04:05:55.894Z,101459.91
2018-07-07T04:08:26.630Z,101471.27
2018-07-07T04:10:57.243Z,101475.30
2018-07-07T04:13:28.076Z,101478.40
2018-07-07T04:15:58.950Z,101476.84
2018-07-07T04:18:34.878Z,101479.09
2018-07-07T04:21:06.943Z,101479.47
2018-07-07T04:23:37.397Z,101480.87
2018-07-07T04:26:08.160Z,101489.01
2018-07-07T04:28:38.335Z,101483.42
2018-07-07T04:31:09.163Z,101491.60
2018-07-07T04:33:39.049Z,101491.36
2018-07-07T04:36:09.035Z,101488.48
2018-07-07T04:38:39.656Z,101487.25
2018-07-07T04:41:09.618Z,101484.09
2018-07-07T04:43:39.533Z,101480.89
2018-07-07T04:46:09.484Z,101484.23
2018-07-07T04:48:39.398Z,101480.30
2018-07-07T04:51:09.342Z,101486.95
2018-07-07T04:53:39.247Z,101494.11
2018-07-07T04:56:09.202Z,101485.25
2018-07-07T04:58:39.271Z,101488.79
2018-07-07T05:01:09.186Z,101492.88
2018-07-07T05:03:39.231Z,101500.12
2018-07-07T05:06:10.020Z,101495.42
2018-07-07T05:08:40.207Z,101499.56
2018-07-07T05:11:10.145Z,101500.95
2018-07-07T05:13:39.980Z,101498.95
2018-07-07T05:16:09.984Z,101500.84
2018-07-07T05:18:39.927Z,101507.10
2018-07-07T05:21:09.979Z,101509.67
2018-07-07T05:23:39.980Z,101504.33
2018-07-07T05:26:10.086Z,101500.03
2018-07-07T05:28:39.968Z,101508.95
2018-07-07T05:31:10.010Z,101508.88
2018-07-07T05:33:40.071Z,101507.61
2018-07-07T05:36:10.083Z,101504.56
2018-07-07T05:38:40.073Z,101514.33
2018-07-07T05:41:10.079Z,101511.11
2018-07-07T05:43:41.145Z,101514.86
2018-07-07T05:46:13.111Z,101518.00
2018-07-07T05:48:43.763Z,101519.70
2018-07-07T05:51:14.852Z,101521.23
2018-07-07T05:53:47.771Z,101521.33
2018-07-07T05:56:25.385Z,101524.98
2018-07-07T05:58:55.972Z,101528.27
2018-07-07T06:01:26.220Z,101529.79
2018-07-07T06:03:56.275Z,101526.57
2018-07-07T06:06:26.731Z,101526.73
2018-07-07T06:08:57.195Z,101528.50
2018-07-07T06:11:27.701Z,101535.94
2018-07-07T06:13:58.259Z,101532.13
2018-07-07T06:16:29.189Z,101533.52
2018-07-07T06:19:00.263Z,101533.42
2018-07-07T06:21:31.159Z,101536.04
2018-07-07T06:24:01.862Z,101538.16
2018-07-07T06:26:32.754Z,101535.98
2018-07-07T06:29:02.839Z,101530.41
2018-07-07T06:31:33.611Z,101526.67
2018-07-07T06:34:04.944Z,101534.69
2018-07-07T06:36:35.546Z,101529.39
2018-07-07T06:39:07.042Z,101531.36
2018-07-07T06:41:37.399Z,101522.24
2018-07-07T06:44:08.856Z,101522.75
2018-07-07T06:46:39.071Z,101524.75
2018-07-07T06:49:09.703Z,101526.28
2018-07-07T06:51:43.830Z,101524.65
2018-07-07T06:54:23.858Z,101523.40
2018-07-07T06:57:13.385Z,101520.97
2018-07-07T06:59:45.213Z,101526.81
2018-07-07T07:02:17.788Z,101523.53
2018-07-07T07:04:55.704Z,101524.48
2018-07-07T07:10:09.997Z,101521.39
2018-07-07T07:12:41.553Z,101517.91
2018-07-07T07:15:12.377Z,101522.98
2018-07-07T07:17:45.613Z,101529.09
2018-07-07T07:20:20.486Z,101525.34
2018-07-07T07:22:52.698Z,101539.02
2018-07-07T07:25:23.374Z,101538.15
2018-07-07T07:27:54.358Z,101544.56
2018-07-07T07:30:24.713Z,101544.47
2018-07-07T07:32:55.722Z,101542.89
2018-07-07T07:35:25.990Z,101544.69
2018-07-07T07:37:57.837Z,101539.69
2018-07-07T07:40:32.016Z,101540.62
2018-07-07T07:43:03.453Z,101537.42
2018-07-07T07:45:36.049Z,101542.62
2018-07-07T07:48:08.723Z,101535.83
2018-07-07T07:50:39.427Z,101543.47
2018-07-07T07:53:10.289Z,101541.92
2018-07-07T07:55:40.192Z,101540.88
2018-07-07T07:58:14.258Z,101543.21
2018-07-07T08:03:38.290Z,101542.26
2018-07-07T08:06:09.553Z,101546.41
2018-07-07T08:11:39.693Z,101542.23
2018-07-07T08:14:11.819Z,101544.83
2018-07-07T08:16:52.848Z,101543.51
2018-07-07T08:20:05.976Z,101547.00
2018-07-07T08:22:40.021Z,101549.41
2018-07-07T08:25:10.807Z,101539.32
2018-07-07T08:27:40.786Z,101540.16
2018-07-07T08:30:10.600Z,101549.09
2018-07-07T08:32:40.551Z,101541.11
2018-07-07T08:35:11.198Z,101545.16
2018-07-07T08:37:41.114Z,101546.67
2018-07-07T08:40:13.707Z,101541.02
2018-07-07T08:42:54.780Z,101543.80
2018-07-07T08:49:08.864Z,101537.69
2018-07-07T08:56:40.270Z,101535.08
2018-07-07T08:59:10.650Z,101540.78
2018-07-07T09:07:10.787Z,101539.98
2018-07-07T09:09:41.233Z,101538.70
2018-07-07T09:12:11.044Z,101536.60
2018-07-07T09:14:40.931Z,101538.50
2018-07-07T09:17:10.853Z,101536.30
2018-07-07T09:24:40.974Z,101528.65
2018-07-07T09:27:10.832Z,101532.66
2018-07-07T09:29:41.266Z,101527.99
2018-07-07T09:32:11.076Z,101528.31
2018-07-07T09:34:41.155Z,101525.57
2018-07-07T09:37:11.163Z,101530.41
2018-07-07T09:39:41.123Z,101520.24
2018-07-07T09:54:41.297Z,101520.70
2018-07-07T09:57:11.116Z,101510.61
2018-07-07T09:59:41.384Z,101519.33
2018-07-07T10:02:11.363Z,101512.70
2018-07-07T10:09:38.151Z,101523.64
2018-07-07T10:12:11.271Z,101513.23
2018-07-07T10:14:41.293Z,101508.52
2018-07-07T10:17:11.257Z,101513.56
2018-07-07T10:19:41.212Z,101509.17
2018-07-07T10:22:11.337Z,101506.09
2018-07-07T10:24:41.323Z,101506.07
2018-07-07T10:27:11.303Z,101516.16
2018-07-07T10:29:41.254Z,101516.99
2018-07-07T10:32:11.268Z,101517.97
2018-07-07T10:34:41.322Z,101515.95
2018-07-07T10:37:11.251Z,101509.19
2018-07-07T10:39:41.210Z,101503.00
2018-07-07T10:42:11.275Z,101507.70
2018-07-07T10:44:41.549Z,101513.42
2018-07-07T11:27:37.834Z,101482.73
2018-07-07T11:30:09.225Z,101485.25
2018-07-07T11:32:50.398Z,101484.67
2018-07-07T11:35:36.538Z,101482.67
2018-07-07T11:55:51.678Z,101475.08
2018-07-07T11:58:22.522Z,101475.98
2018-07-07T12:39:48.668Z,101445.64
2018-07-07T12:42:31.904Z,101444.55
2018-07-07T12:48:29.262Z,101442.38
2018-07-07T12:54:00.665Z,101435.77
2018-07-07T13:27:40.587Z,101428.54
2018-07-07T13:30:11.383Z,101425.09
2018-07-07T13:32:41.602Z,101423.70
2018-07-07T13:35:11.463Z,101417.46
2018-07-07T13:37:41.337Z,101424.63
2018-07-07T13:40:11.223Z,101421.81
2018-07-07T13:48:09.144Z,101427.48
2018-07-07T13:50:40.594Z,101434.55
2018-07-07T13:53:11.666Z,101433.66
2018-07-07T13:55:41.592Z,101421.36
2018-07-07T14:22:48.433Z,101410.11
2018-07-07T14:36:50.721Z,101413.47
2018-07-07T14:49:19.153Z,101414.00
2018-07-07T14:52:06.677Z,101418.68
2018-07-07T15:14:35.417Z,101404.64
2018-07-07T15:17:19.715Z,101410.44
2018-07-07T16:01:16.575Z,101381.23
2018-07-07T16:18:15.448Z,101370.87
2018-07-07T16:20:48.272Z,101365.48
2018-07-07T16:23:18.167Z,101371.86
2018-07-07T16:25:48.215Z,101366.39
2018-07-07T16:34:46.455Z,101365.66
2018-07-07T16:44:19.048Z,101361.41
2018-07-07T16:46:49.505Z,101358.72
2018-07-07T17:07:59.226Z,101362.77
2018-07-07T17:16:43.117Z,101349.77
2018-07-07T17:22:42.712Z,101348.33
2018-07-07T17:55:17.086Z,101353.97
2018-07-07T17:57:58.471Z,101358.23
2018-07-07T18:00:50.862Z,101359.59
2018-07-07T18:03:22.960Z,101364.03
2018-07-07T18:08:37.351Z,101366.04
2018-07-07T18:11:11.635Z,101363.00
2018-07-07T18:13:42.738Z,101364.29
2018-07-07T18:16:13.174Z,101365.48
2018-07-07T18:18:44.396Z,101367.66
2018-07-07T18:21:21.593Z,101373.47
2018-07-07T18:23:56.907Z,101372.02
2018-07-07T18:26:36.945Z,101374.80
2018-07-07T18:29:06.950Z,101369.21
2018-07-07T18:31:36.851Z,101369.06
2018-07-07T18:34:06.911Z,101372.07
2018-07-07T18:39:36.720Z,101373.67
2018-07-07T18:42:07.955Z,101373.33
2018-07-07T18:44:37.569Z,101377.52
2018-07-07T18:47:11.672Z,101373.03
2018-07-07T18:49:48.667Z,101378.09
2018-07-07T18:52:29.449Z,101379.17
2018-07-07T18:58:03.641Z,101377.22
2018-07-07T19:22:42.463Z,101386.17
2018-07-07T19:25:21.849Z,101392.38
2018-07-07T19:27:52.185Z,101390.58
2018-07-07T19:30:23.723Z,101395.33
2018-07-07T19:33:04.465Z,101392.17
2018-07-07T19:35:45.988Z,101399.63
2018-07-07T19:38:33.128Z,101406.25
2018-07-07T19:47:55.011Z,101413.24
2018-07-07T19:53:42.891Z,101413.89
2018-07-07T19:56:23.349Z,101424.28
2018-07-07T20:07:39.843Z,101427.80
2018-07-07T20:22:41.695Z,101439.03
2018-07-07T20:25:25.340Z,101436.16
2018-07-07T20:31:11.043Z,101441.68
2018-07-07T20:33:41.623Z,101434.66
2018-07-07T20:36:20.477Z,101449.80
2018-07-07T20:39:12.567Z,101447.18
2018-07-07T20:42:44.965Z,101449.84
2018-07-07T20:45:25.279Z,101451.98
2018-07-07T20:48:00.748Z,101456.09
2018-07-07T20:50:55.925Z,101457.81
2018-07-07T20:59:55.438Z,101466.48
2018-07-07T21:07:26.467Z,101470.59
2018-07-07T21:10:24.921Z,101480.72
2018-07-07T21:12:55.979Z,101479.30
2018-07-07T21:15:31.506Z,101470.13
2018-07-07T21:18:08.991Z,101469.17
2018-07-07T21:20:40.338Z,101470.26
2018-07-07T21:23:11.045Z,101472.81
2018-07-07T21:25:42.131Z,101472.52
2018-07-07T21:28:18.277Z,101471.11
2018-07-07T21:33:51.340Z,101481.86
2018-07-07T21:36:31.199Z,101479.88
2018-07-07T21:44:02.825Z,101483.77
2018-07-07T21:49:18.818Z,101484.85
2018-07-07T21:51:52.564Z,101485.38
2018-07-07T21:54:24.361Z,101495.61
2018-07-07T21:56:59.107Z,101492.38
2018-07-07T21:59:35.319Z,101497.77
2018-07-07T22:02:14.257Z,101503.39
2018-07-07T22:04:50.765Z,101500.55
2018-07-07T22:07:26.198Z,101496.62
2018-07-07T22:09:56.889Z,101498.58
2018-07-07T22:12:37.325Z,101503.98
2018-07-07T22:21:13.882Z,101507.69
2018-07-07T22:23:51.144Z,101503.77
2018-07-07T22:26:36.130Z,101510.13
2018-07-07T22:29:17.346Z,101504.98
2018-07-07T22:31:58.003Z,101503.66
2018-07-07T22:34:45.842Z,101505.41
2018-07-07T22:37:21.774Z,101508.37
2018-07-07T22:39:53.253Z,101508.27
2018-07-07T22:42:23.727Z,101519.55
2018-07-07T22:45:06.772Z,101520.78
2018-07-07T22:47:48.735Z,101516.27
2018-07-07T22:50:22.252Z,101512.77
2018-07-07T22:52:52.201Z,101523.88
2018-07-07T22:55:22.412Z,101523.41
2018-07-07T22:57:52.419Z,101515.03
2018-07-07T23:00:22.503Z,101513.23
2018-07-07T23:02:52.203Z,101522.09
2018-07-07T23:05:22.191Z,101519.46
2018-07-07T23:07:52.546Z,101517.22
2018-07-07T23:10:22.539Z,101520.58
2018-07-07T23:12:52.401Z,101530.30
2018-07-07T23:15:22.354Z,101529.50
2018-07-07T23:17:52.519Z,101532.52
2018-07-07T23:20:25.097Z,101533.92
2018-07-07T23:23:02.999Z,101535.91
2018-07-07T23:25:40.498Z,101540.63
2018-07-07T23:28:18.016Z,101533.45
2018-07-07T23:30:50.883Z,101536.30
2018-07-07T23:36:07.608Z,101523.28
2018-07-07T23:38:40.283Z,101525.83
2018-07-07T23:41:16.573Z,101520.05
2018-07-07T23:43:47.002Z,101524.59
2018-07-07T23:46:18.200Z,101522.89
2018-07-07T23:48:49.273Z,101518.75
2018-07-07T23:51:20.507Z,101520.06
2018-07-07T23:53:51.665Z,101524.75
2018-07-07T23:56:22.550Z,101527.98
2018-07-07T23:58:57.517Z,101524.55
